ENNE

Norne Fpso Oilp

Norne Fpso Oilp, Norway
METAR ENNE 131050Z 20028KT 9999 FEW020 SCT035 06/02 Q1026 W///S5
Observed Flight Rules
Dec-13 @ 10:50 UTC (15 minutes ago) Visual Flight Rules
Wind Visibility Clouds
200° at 28 knots 10,000+ meters
  • Few at 2,000' AGL
  • Scattered at 3,500' AGL
Temperatures Readings
Current 6°C / 43°F
Dewpoint 2°C / 36°F
Humidity 76%
Altimeter 30.3" Hg
Pressure 1026 hPa
Elevation 10
METAR ENNE 131050Z 20028KT 9999 FEW020 SCT035 06/02 Q1026 W///S5
Observed Flight Rules
Dec-13 @ 10:50 UTC
(15 minutes ago)
VFR
Wind Visibility
200° at 28 knots 10,000+ meters
Clouds
  • Few at 2,000' AGL
  • Scattered at 3,500' AGL
Temperature Dewpoint
6°C / 43°F 2°C / 36°F
Humidity Altimeter Pressure
76% 30.3" Hg 1026 hPa